createdAt,value
2018-07-30T00:00:39.027Z,23.16
2018-07-30T00:01:39.062Z,23.21
2018-07-30T00:02:38.855Z,23.16
2018-07-30T00:03:38.779Z,23.15
2018-07-30T00:04:38.680Z,23.18
2018-07-30T00:05:38.590Z,23.15
2018-07-30T00:06:38.538Z,23.26
2018-07-30T00:07:38.419Z,23.18
2018-07-30T00:08:38.337Z,23.11
2018-07-30T00:09:38.343Z,23.16
2018-07-30T00:10:38.163Z,23.14
2018-07-30T00:11:38.107Z,23.14
2018-07-30T00:12:37.994Z,23.12
2018-07-30T00:13:37.908Z,23.09
2018-07-30T00:14:37.822Z,23.21
2018-07-30T00:15:37.735Z,23.21
2018-07-30T00:16:37.682Z,23.23
2018-07-30T00:17:37.562Z,23.26
2018-07-30T00:18:37.476Z,23.29
2018-07-30T00:19:37.391Z,23.21
2018-07-30T00:20:37.309Z,23.29
2018-07-30T00:21:37.253Z,23.26
2018-07-30T00:22:37.133Z,23.16
2018-07-30T00:23:37.046Z,23.14
2018-07-30T00:24:36.960Z,23.06
2018-07-30T00:25:36.893Z,23.11
2018-07-30T00:26:36.824Z,23.07
2018-07-30T00:27:36.708Z,23.11
2018-07-30T00:28:36.617Z,23.14
2018-07-30T00:29:36.536Z,23.15
2018-07-30T00:30:36.450Z,23.15
2018-07-30T00:31:36.397Z,23.16
2018-07-30T00:32:36.278Z,23.09
2018-07-30T00:33:36.195Z,23.09
2018-07-30T00:34:36.108Z,23.15
2018-07-30T00:35:36.017Z,23.15
2018-07-30T00:36:35.963Z,23.09
2018-07-30T00:37:35.845Z,23.11
2018-07-30T00:38:35.761Z,22.99
2018-07-30T00:39:35.677Z,23.01
2018-07-30T00:40:35.590Z,22.91
2018-07-30T00:41:35.535Z,22.91
2018-07-30T00:42:35.417Z,22.99
2018-07-30T00:43:35.332Z,22.91
2018-07-30T00:44:35.248Z,22.94
2018-07-30T00:45:35.161Z,22.88
2018-07-30T00:46:35.106Z,23.00
2018-07-30T00:47:34.992Z,23.09
2018-07-30T00:48:34.902Z,23.04
2018-07-30T00:49:34.816Z,22.91
2018-07-30T00:50:34.733Z,22.96
2018-07-30T00:51:34.675Z,22.84
2018-07-30T00:52:34.558Z,22.93
2018-07-30T00:53:34.478Z,22.88
2018-07-30T00:54:34.391Z,22.99
2018-07-30T00:55:34.303Z,23.00
2018-07-30T00:56:34.249Z,23.03
2018-07-30T00:57:34.131Z,23.03
2018-07-30T00:58:34.043Z,22.96
2018-07-30T00:59:33.959Z,23.01
2018-07-30T01:00:33.871Z,23.01
2018-07-30T01:01:33.819Z,23.03
2018-07-30T01:02:33.703Z,23.07
2018-07-30T01:03:33.618Z,23.03
2018-07-30T01:04:33.531Z,23.01
2018-07-30T01:05:33.447Z,23.00
2018-07-30T01:06:33.395Z,23.01
2018-07-30T01:07:33.317Z,22.91
2018-07-30T01:08:33.186Z,22.94
2018-07-30T01:09:33.100Z,22.86
2018-07-30T01:10:33.015Z,22.96
2018-07-30T01:11:32.966Z,22.93
2018-07-30T01:12:32.845Z,22.91
2018-07-30T01:13:32.758Z,22.89
2018-07-30T01:14:32.673Z,22.85
2018-07-30T01:15:32.586Z,22.84
2018-07-30T01:16:32.504Z,22.94
2018-07-30T01:17:32.444Z,22.93
2018-07-30T01:18:32.331Z,23.00
2018-07-30T01:19:32.245Z,22.97
2018-07-30T01:20:32.167Z,22.94
2018-07-30T01:21:32.117Z,23.03
2018-07-30T01:22:32.049Z,23.04
2018-07-30T01:23:31.900Z,23.00
2018-07-30T01:24:31.813Z,23.03
2018-07-30T01:25:31.729Z,22.99
2018-07-30T01:26:31.643Z,22.89
2018-07-30T01:27:31.582Z,22.96
2018-07-30T01:28:31.469Z,23.01
2018-07-30T01:29:31.383Z,22.96
2018-07-30T01:30:31.296Z,22.99
2018-07-30T01:31:31.226Z,22.96
2018-07-30T01:32:31.273Z,22.89
2018-07-30T01:33:31.043Z,22.93
2018-07-30T01:34:30.953Z,22.94
2018-07-30T01:35:30.870Z,22.94
2018-07-30T01:36:30.783Z,22.99
2018-07-30T01:37:30.723Z,22.91
2018-07-30T01:38:30.611Z,22.94
2018-07-30T01:39:30.618Z,22.91
2018-07-30T01:40:30.435Z,22.99
2018-07-30T01:41:30.354Z,23.01
2018-07-30T01:42:30.297Z,23.06
2018-07-30T01:43:30.181Z,23.07
2018-07-30T01:44:30.095Z,23.00
2018-07-30T01:45:30.009Z,22.99
2018-07-30T01:46:30.016Z,23.00
2018-07-30T01:47:29.867Z,22.99
2018-07-30T01:48:29.748Z,22.89
2018-07-30T01:49:29.666Z,22.94
2018-07-30T01:50:29.581Z,22.93
2018-07-30T01:51:29.491Z,23.01
2018-07-30T01:52:29.434Z,23.03
2018-07-30T01:53:29.428Z,23.06
2018-07-30T01:54:29.235Z,23.14
2018-07-30T01:55:29.170Z,23.00
2018-07-30T01:56:29.060Z,22.99
2018-07-30T01:57:29.012Z,22.99
2018-07-30T01:58:28.893Z,22.99
2018-07-30T01:59:28.806Z,23.00
2018-07-30T02:00:28.807Z,23.01
2018-07-30T02:01:28.632Z,23.03
2018-07-30T02:02:28.579Z,23.03
2018-07-30T02:03:28.460Z,22.88
2018-07-30T02:04:28.375Z,22.89
2018-07-30T02:05:28.288Z,22.91
2018-07-30T02:06:28.200Z,22.94
2018-07-30T02:07:28.241Z,22.91
2018-07-30T02:08:28.034Z,22.86
2018-07-30T02:09:27.945Z,22.86
2018-07-30T02:10:27.861Z,22.94
2018-07-30T02:11:27.771Z,22.93
2018-07-30T02:12:27.717Z,22.94
2018-07-30T02:13:27.599Z,23.09
2018-07-30T02:14:27.608Z,22.91
2018-07-30T02:15:27.444Z,22.91
2018-07-30T02:16:27.342Z,22.86
2018-07-30T02:17:27.287Z,22.86
2018-07-30T02:18:27.175Z,22.94
2018-07-30T02:19:27.084Z,22.94
2018-07-30T02:20:26.997Z,22.89
2018-07-30T02:21:27.058Z,22.91
2018-07-30T02:22:26.856Z,22.96
2018-07-30T02:23:26.740Z,22.88
2018-07-30T02:24:26.657Z,22.89
2018-07-30T02:25:26.576Z,22.76
2018-07-30T02:26:27.034Z,22.81
2018-07-30T02:27:26.426Z,22.76
2018-07-30T02:28:26.404Z,22.85
2018-07-30T02:29:26.225Z,22.84
2018-07-30T02:30:26.141Z,22.84
2018-07-30T02:31:26.054Z,22.74
2018-07-30T02:32:26.045Z,22.78
2018-07-30T02:33:25.879Z,22.72
2018-07-30T02:34:25.797Z,22.69
2018-07-30T02:35:25.806Z,22.66
2018-07-30T02:36:25.620Z,22.70
2018-07-30T02:37:25.583Z,22.67
2018-07-30T02:38:25.457Z,22.63
2018-07-30T02:39:25.375Z,22.64
2018-07-30T02:40:25.277Z,22.52
2018-07-30T02:41:25.195Z,22.54
2018-07-30T02:42:25.138Z,22.52
2018-07-30T02:43:25.019Z,22.60
2018-07-30T02:44:24.936Z,22.64
2018-07-30T02:45:24.847Z,22.60
2018-07-30T02:46:24.765Z,22.59
2018-07-30T02:47:24.679Z,22.64
2018-07-30T02:48:24.616Z,22.66
2018-07-30T02:49:24.503Z,22.67
2018-07-30T02:50:24.415Z,22.70
2018-07-30T02:51:24.328Z,22.69
2018-07-30T02:52:24.277Z,22.66
2018-07-30T02:53:24.158Z,22.63
2018-07-30T02:54:24.076Z,22.67
2018-07-30T02:55:23.984Z,22.63
2018-07-30T02:56:23.994Z,22.61
2018-07-30T02:57:23.816Z,22.54
2018-07-30T02:58:23.759Z,22.63
2018-07-30T02:59:23.640Z,22.60
2018-07-30T03:00:23.554Z,22.67
2018-07-30T03:01:23.466Z,22.54
2018-07-30T03:02:23.384Z,22.57
2018-07-30T03:03:23.326Z,22.56
2018-07-30T03:04:23.207Z,22.60
2018-07-30T03:05:23.125Z,22.52
2018-07-30T03:06:23.038Z,22.66
2018-07-30T03:07:22.954Z,22.56
2018-07-30T03:08:22.894Z,22.48
2018-07-30T03:09:22.820Z,22.57
2018-07-30T03:10:22.691Z,22.54
2018-07-30T03:11:22.610Z,22.63
2018-07-30T03:12:22.520Z,22.61
2018-07-30T03:13:22.464Z,22.54
2018-07-30T03:14:22.347Z,22.61
2018-07-30T03:15:22.262Z,22.60
2018-07-30T03:16:22.194Z,22.56
2018-07-30T03:17:22.089Z,22.54
2018-07-30T03:18:22.032Z,22.60
2018-07-30T03:19:21.915Z,22.60
2018-07-30T03:20:21.832Z,22.67
2018-07-30T03:21:21.742Z,22.66
2018-07-30T03:22:21.709Z,22.69
2018-07-30T03:23:21.603Z,22.70
2018-07-30T03:24:21.487Z,22.74
2018-07-30T03:25:21.399Z,22.67
2018-07-30T03:26:21.311Z,22.72
2018-07-30T03:27:21.228Z,22.72
2018-07-30T03:28:21.172Z,22.70
2018-07-30T03:29:21.056Z,22.70
2018-07-30T03:30:20.970Z,22.70
2018-07-30T03:31:20.881Z,22.70
2018-07-30T03:32:20.793Z,22.72
2018-07-30T03:33:20.738Z,22.63
2018-07-30T03:34:20.626Z,22.57
2018-07-30T03:35:20.536Z,22.52
2018-07-30T03:36:20.448Z,22.44
2018-07-30T03:37:20.364Z,22.42
2018-07-30T03:38:20.313Z,22.42
2018-07-30T03:39:20.192Z,22.41
2018-07-30T03:40:20.140Z,22.27
2018-07-30T03:41:20.021Z,22.15
2018-07-30T03:42:20.026Z,22.14
2018-07-30T03:43:19.879Z,22.08
2018-07-30T03:44:19.763Z,22.02
2018-07-30T03:45:19.674Z,22.06
2018-07-30T03:46:19.595Z,22.02
2018-07-30T03:47:19.503Z,22.06
2018-07-30T03:48:19.445Z,22.06
2018-07-30T03:49:19.334Z,22.11
2018-07-30T03:50:19.247Z,22.09
2018-07-30T03:51:19.159Z,22.15
2018-07-30T03:52:19.075Z,22.14
2018-07-30T03:53:19.014Z,22.02
2018-07-30T03:54:18.902Z,22.12
2018-07-30T03:55:18.812Z,22.11
2018-07-30T03:56:18.731Z,22.14
2018-07-30T03:57:18.643Z,22.12
2018-07-30T03:58:18.589Z,22.20
2018-07-30T03:59:18.472Z,22.09
2018-07-30T04:00:18.435Z,22.11
2018-07-30T04:01:18.300Z,22.04
2018-07-30T04:02:18.211Z,21.98
2018-07-30T04:03:18.159Z,21.94
2018-07-30T04:04:18.058Z,21.89
2018-07-30T04:05:17.955Z,21.81
2018-07-30T04:06:17.882Z,21.73
2018-07-30T04:07:17.781Z,21.71
2018-07-30T04:08:17.724Z,21.63
2018-07-30T04:09:17.612Z,21.49
2018-07-30T04:10:17.524Z,21.58
2018-07-30T04:11:17.436Z,21.46
2018-07-30T04:12:17.352Z,21.37
2018-07-30T04:13:17.296Z,21.28
2018-07-30T04:14:17.180Z,21.30
2018-07-30T04:15:17.103Z,21.16
2018-07-30T04:16:17.006Z,21.12
2018-07-30T04:17:16.920Z,21.12
2018-07-30T04:18:16.836Z,21.08
2018-07-30T04:19:16.782Z,20.98
2018-07-30T04:20:16.952Z,21.01
2018-07-30T04:21:16.578Z,20.93
2018-07-30T04:22:16.527Z,20.98
2018-07-30T04:23:16.405Z,21.00
2018-07-30T04:24:16.345Z,20.97
2018-07-30T04:25:16.233Z,20.87
2018-07-30T04:26:16.146Z,20.97
2018-07-30T04:27:16.061Z,20.96
2018-07-30T04:28:15.974Z,20.91
2018-07-30T04:29:15.918Z,21.08
2018-07-30T04:30:15.804Z,21.31
2018-07-30T04:31:15.715Z,21.27
2018-07-30T04:32:15.630Z,21.37
2018-07-30T04:33:15.545Z,21.37
2018-07-30T04:34:15.578Z,21.48
2018-07-30T04:35:15.368Z,21.48
2018-07-30T04:36:15.282Z,21.52
2018-07-30T04:37:15.200Z,21.55
2018-07-30T04:38:15.113Z,21.53
2018-07-30T04:39:15.053Z,21.56
2018-07-30T04:40:14.937Z,21.48
2018-07-30T04:41:14.947Z,21.52
2018-07-30T04:42:14.765Z,21.42
2018-07-30T04:43:14.680Z,21.48
2018-07-30T04:44:14.626Z,21.51
2018-07-30T04:45:14.507Z,21.51
2018-07-30T04:46:14.421Z,21.48
2018-07-30T04:47:14.336Z,21.53
2018-07-30T04:48:14.357Z,21.46
2018-07-30T04:49:14.235Z,21.51
2018-07-30T04:50:14.103Z,21.56
2018-07-30T04:51:13.988Z,21.51
2018-07-30T04:52:13.910Z,21.61
2018-07-30T04:53:13.820Z,21.63
2018-07-30T04:54:13.761Z,21.70
2018-07-30T04:55:13.739Z,21.71
2018-07-30T04:56:13.560Z,22.02
2018-07-30T04:57:13.470Z,21.99
2018-07-30T04:58:13.388Z,22.06
2018-07-30T04:59:13.331Z,22.14
2018-07-30T05:00:13.215Z,22.15
2018-07-30T05:01:13.128Z,22.21
2018-07-30T05:02:13.137Z,22.21
2018-07-30T05:03:12.956Z,22.29
2018-07-30T05:04:12.897Z,22.14
2018-07-30T05:05:12.784Z,22.23
2018-07-30T05:06:12.697Z,22.36
2018-07-30T05:07:12.613Z,22.38
2018-07-30T05:08:12.525Z,22.39
2018-07-30T05:09:12.560Z,22.44
2018-07-30T05:10:12.355Z,22.44
2018-07-30T05:11:12.320Z,22.41
2018-07-30T05:12:12.182Z,22.46
2018-07-30T05:13:12.095Z,22.42
2018-07-30T05:14:12.040Z,22.46
2018-07-30T05:15:11.924Z,22.48
2018-07-30T05:16:11.931Z,22.48
2018-07-30T05:17:11.755Z,22.51
2018-07-30T05:18:11.667Z,22.56
2018-07-30T05:19:11.673Z,22.75
2018-07-30T05:20:11.496Z,22.78
2018-07-30T05:21:11.425Z,22.72
2018-07-30T05:22:11.321Z,22.76
2018-07-30T05:23:11.332Z,22.72
2018-07-30T05:24:11.180Z,22.69
2018-07-30T05:25:11.068Z,22.69
2018-07-30T05:26:10.982Z,22.63
2018-07-30T05:27:10.895Z,22.74
2018-07-30T05:28:10.811Z,22.84
2018-07-30T05:29:10.754Z,22.75
2018-07-30T05:30:10.636Z,22.93
2018-07-30T05:31:10.550Z,23.04
2018-07-30T05:32:10.466Z,22.99
2018-07-30T05:33:10.379Z,23.15
2018-07-30T05:34:10.325Z,23.15
2018-07-30T05:35:10.210Z,23.09
2018-07-30T05:36:10.123Z,23.16
2018-07-30T05:37:10.137Z,23.29
2018-07-30T05:38:09.953Z,23.29
2018-07-30T05:39:09.898Z,23.42
2018-07-30T05:40:09.782Z,23.52
2018-07-30T05:41:09.696Z,23.47
2018-07-30T05:42:09.609Z,23.60
2018-07-30T05:43:09.532Z,23.52
2018-07-30T05:44:09.473Z,23.57
2018-07-30T05:45:09.356Z,23.60
2018-07-30T05:46:09.274Z,23.64
2018-07-30T05:47:09.184Z,23.64
2018-07-30T05:48:09.099Z,23.78
2018-07-30T05:49:09.044Z,23.78
2018-07-30T05:50:08.985Z,23.77
2018-07-30T05:51:08.843Z,23.78
2018-07-30T05:52:08.759Z,23.81
2018-07-30T05:53:08.677Z,23.86
2018-07-30T05:54:08.597Z,23.81
2018-07-30T05:55:08.532Z,23.94
2018-07-30T05:56:08.417Z,23.93
2018-07-30T05:57:08.331Z,24.02
2018-07-30T05:58:08.248Z,24.05
2018-07-30T05:59:08.165Z,24.08
2018-07-30T06:00:08.107Z,24.14
2018-07-30T06:01:07.994Z,24.23
2018-07-30T06:02:07.909Z,24.29
2018-07-30T06:03:07.825Z,24.29
2018-07-30T06:04:07.739Z,24.29
2018-07-30T06:05:07.682Z,24.36
2018-07-30T06:06:07.570Z,24.44
2018-07-30T06:07:07.488Z,24.39
2018-07-30T06:08:07.398Z,24.41
2018-07-30T06:09:07.318Z,24.55
2018-07-30T06:10:07.266Z,24.64
2018-07-30T06:11:07.147Z,24.70
2018-07-30T06:12:07.059Z,24.80
2018-07-30T06:13:06.978Z,24.70
2018-07-30T06:14:06.894Z,24.70
2018-07-30T06:15:06.838Z,24.80
2018-07-30T06:16:06.727Z,24.79
2018-07-30T06:17:06.639Z,24.84
2018-07-30T06:18:06.556Z,24.79
2018-07-30T06:19:06.468Z,24.68
2018-07-30T06:20:06.417Z,24.74
2018-07-30T06:21:06.301Z,24.70
2018-07-30T06:22:06.221Z,24.74
2018-07-30T06:23:06.132Z,24.71
2018-07-30T06:24:06.049Z,24.67
2018-07-30T06:25:05.996Z,24.75
2018-07-30T06:26:05.881Z,24.83
2018-07-30T06:27:05.797Z,24.89
2018-07-30T06:28:05.711Z,24.98
2018-07-30T06:29:05.629Z,24.98
2018-07-30T06:30:05.574Z,25.05
2018-07-30T06:31:05.459Z,25.04
2018-07-30T06:32:05.379Z,25.04
2018-07-30T06:33:05.291Z,25.11
2018-07-30T06:34:05.208Z,25.23
2018-07-30T06:35:05.155Z,25.24
2018-07-30T06:36:05.039Z,25.27
2018-07-30T06:37:04.955Z,25.41
2018-07-30T06:38:04.873Z,25.36
2018-07-30T06:39:04.787Z,25.45
2018-07-30T06:40:04.732Z,25.53
2018-07-30T06:41:04.617Z,25.61
2018-07-30T06:42:04.541Z,25.74
2018-07-30T06:43:04.453Z,25.78
2018-07-30T06:44:04.371Z,25.76
2018-07-30T06:45:04.316Z,26.01
2018-07-30T06:46:04.201Z,26.19
2018-07-30T06:47:04.118Z,26.27
2018-07-30T06:48:04.051Z,26.53
2018-07-30T06:49:03.950Z,26.79
2018-07-30T06:50:03.898Z,26.98
2018-07-30T06:51:03.781Z,27.03
2018-07-30T06:52:03.701Z,27.46
2018-07-30T06:53:03.615Z,27.46
2018-07-30T06:54:03.529Z,27.63
2018-07-30T06:55:03.479Z,27.78
2018-07-30T06:56:03.372Z,27.99
2018-07-30T06:57:03.284Z,27.98
2018-07-30T06:58:03.204Z,28.18
2018-07-30T06:59:03.120Z,28.38
2018-07-30T07:00:03.072Z,28.45
2018-07-30T07:01:02.963Z,28.48
2018-07-30T07:02:02.924Z,28.83
2018-07-30T07:03:02.794Z,29.14
2018-07-30T07:04:02.713Z,29.47
2018-07-30T07:05:02.667Z,29.27
2018-07-30T07:06:02.553Z,29.57
2018-07-30T07:07:02.567Z,29.52
2018-07-30T07:08:02.393Z,29.64
2018-07-30T07:09:02.313Z,29.74
2018-07-30T07:10:02.262Z,29.71
2018-07-30T07:11:02.156Z,29.49
2018-07-30T07:12:02.073Z,29.78
2018-07-30T07:13:01.994Z,29.67
2018-07-30T07:14:01.915Z,29.78
2018-07-30T07:15:01.868Z,29.91
2018-07-30T07:16:01.765Z,29.81
2018-07-30T07:17:01.697Z,29.99
2018-07-30T07:18:01.601Z,30.07
2018-07-30T07:19:01.519Z,30.08
2018-07-30T07:20:01.444Z,30.18
2018-07-30T07:21:01.485Z,30.25
2018-07-30T07:22:01.357Z,30.10
2018-07-30T07:23:01.208Z,30.28
2018-07-30T07:24:01.127Z,30.49
2018-07-30T07:25:01.065Z,30.64
2018-07-30T07:26:01.004Z,30.96
2018-07-30T07:27:00.928Z,30.93
2018-07-30T07:28:00.986Z,31.03
2018-07-30T07:29:00.741Z,31.30
2018-07-30T07:30:00.666Z,31.20
2018-07-30T07:31:00.619Z,31.38
2018-07-30T07:32:00.510Z,31.37
2018-07-30T07:33:00.430Z,31.60
2018-07-30T07:34:00.356Z,31.72
2018-07-30T07:35:00.408Z,31.95
2018-07-30T07:36:00.235Z,32.03
2018-07-30T07:37:00.127Z,31.46
2018-07-30T07:38:00.052Z,31.20
2018-07-30T07:38:59.972Z,30.91
2018-07-30T07:39:59.899Z,31.05
2018-07-30T07:40:59.853Z,31.18
2018-07-30T07:41:59.836Z,31.34
2018-07-30T07:42:59.670Z,31.38
2018-07-30T07:43:59.589Z,31.69
2018-07-30T07:44:59.564Z,31.68
2018-07-30T07:45:59.507Z,31.98
2018-07-30T07:46:59.364Z,31.78
2018-07-30T07:47:59.290Z,31.67
2018-07-30T07:48:59.322Z,32.02
2018-07-30T07:49:59.163Z,32.28
2018-07-30T07:50:59.210Z,32.28
2018-07-30T07:51:58.988Z,32.43
2018-07-30T07:52:58.913Z,32.41
2018-07-30T07:53:58.838Z,32.39
2018-07-30T07:54:58.758Z,32.56
2018-07-30T07:55:58.808Z,32.56
2018-07-30T07:56:58.607Z,32.73
2018-07-30T07:57:58.535Z,32.65
2018-07-30T07:58:58.460Z,32.71
2018-07-30T07:59:58.388Z,32.69
2018-07-30T08:00:58.339Z,32.87
2018-07-30T08:01:58.236Z,32.93
2018-07-30T08:02:58.251Z,32.95
2018-07-30T08:03:58.101Z,32.69
2018-07-30T08:04:58.010Z,32.73
2018-07-30T08:05:57.967Z,32.80
2018-07-30T08:06:57.861Z,32.39
2018-07-30T08:07:57.788Z,32.27
2018-07-30T08:08:57.713Z,32.32
2018-07-30T08:09:57.843Z,32.21
2018-07-30T08:10:57.631Z,32.29
2018-07-30T08:11:57.487Z,32.62
2018-07-30T08:12:57.413Z,32.63
2018-07-30T08:13:57.350Z,32.71
2018-07-30T08:14:57.263Z,32.84
2018-07-30T08:15:57.221Z,33.00
2018-07-30T08:16:57.122Z,33.20
2018-07-30T08:17:57.046Z,33.41
2018-07-30T08:18:56.966Z,33.29
2018-07-30T08:19:56.892Z,33.22
2018-07-30T08:20:56.848Z,33.18
2018-07-30T08:21:56.746Z,33.12
2018-07-30T08:22:56.672Z,33.38
2018-07-30T08:23:56.595Z,33.21
2018-07-30T08:24:56.522Z,33.47
2018-07-30T08:25:56.479Z,33.18
2018-07-30T08:26:56.375Z,33.21
2018-07-30T08:27:56.317Z,32.59
2018-07-30T08:28:56.229Z,31.76
2018-07-30T08:29:56.151Z,31.34
2018-07-30T08:30:56.144Z,31.69
2018-07-30T08:31:56.005Z,32.13
2018-07-30T08:32:55.965Z,32.71
2018-07-30T08:33:55.856Z,32.83
2018-07-30T08:34:55.787Z,33.09
2018-07-30T08:35:55.738Z,33.44
2018-07-30T08:36:55.634Z,33.44
2018-07-30T08:37:55.558Z,33.33
2018-07-30T08:38:55.485Z,33.77
2018-07-30T08:39:55.410Z,33.56
2018-07-30T08:40:55.366Z,33.75
2018-07-30T08:41:55.262Z,33.74
2018-07-30T08:42:55.189Z,34.26
2018-07-30T08:43:55.116Z,34.42
2018-07-30T08:44:55.039Z,34.24
2018-07-30T08:45:54.996Z,34.14
2018-07-30T08:46:54.890Z,34.33
2018-07-30T08:47:54.818Z,34.61
2018-07-30T08:48:54.787Z,34.50
2018-07-30T08:49:54.669Z,34.50
2018-07-30T08:50:54.627Z,34.26
2018-07-30T08:51:54.523Z,34.38
2018-07-30T08:52:54.471Z,34.34
2018-07-30T08:53:54.373Z,34.48
2018-07-30T08:54:54.302Z,34.45
2018-07-30T08:55:54.231Z,33.89
2018-07-30T08:56:54.187Z,33.65
2018-07-30T08:57:54.081Z,33.75
2018-07-30T08:58:54.007Z,33.56
2018-07-30T08:59:53.933Z,33.43
2018-07-30T09:00:53.864Z,33.78
2018-07-30T09:01:53.821Z,34.28
2018-07-30T09:02:53.760Z,33.63
2018-07-30T09:03:53.642Z,33.79
2018-07-30T09:04:53.605Z,33.55
2018-07-30T09:05:53.494Z,33.87
2018-07-30T09:06:53.452Z,34.06
2018-07-30T09:07:53.345Z,33.96
2018-07-30T09:08:53.272Z,34.12
2018-07-30T09:09:53.202Z,34.09
2018-07-30T09:10:53.129Z,33.94
2018-07-30T09:11:53.083Z,33.87
2018-07-30T09:12:53.103Z,34.11
2018-07-30T09:13:52.907Z,34.33
2018-07-30T09:14:52.831Z,34.26
2018-07-30T09:15:52.760Z,33.99
2018-07-30T09:16:52.715Z,34.34
2018-07-30T09:17:52.614Z,34.33
2018-07-30T09:18:52.539Z,34.69
2018-07-30T09:19:52.467Z,35.17
2018-07-30T09:20:52.392Z,35.54
2018-07-30T09:21:52.353Z,35.62
2018-07-30T09:22:52.254Z,36.12
2018-07-30T09:23:52.175Z,35.61
2018-07-30T09:24:52.104Z,35.25
2018-07-30T09:25:52.030Z,35.58
2018-07-30T09:26:52.048Z,35.49
2018-07-30T09:27:51.883Z,35.12
2018-07-30T09:28:51.809Z,35.17
2018-07-30T09:29:51.750Z,35.43
2018-07-30T09:30:51.670Z,35.24
2018-07-30T09:31:51.624Z,35.27
2018-07-30T09:32:51.698Z,34.93
2018-07-30T09:33:51.451Z,35.09
2018-07-30T09:34:51.374Z,34.99
2018-07-30T09:35:51.303Z,35.09
2018-07-30T09:36:51.260Z,35.22
2018-07-30T09:37:51.158Z,35.64
2018-07-30T09:38:51.225Z,35.56
2018-07-30T09:39:51.118Z,35.55
2018-07-30T09:40:50.940Z,35.34
2018-07-30T09:41:50.906Z,35.15
2018-07-30T09:42:50.798Z,35.37
2018-07-30T09:43:50.725Z,35.56
2018-07-30T09:44:50.684Z,35.58
2018-07-30T09:45:50.580Z,35.96
2018-07-30T09:46:50.636Z,36.35
2018-07-30T09:47:50.436Z,36.83
2018-07-30T09:48:50.367Z,36.53
2018-07-30T09:49:50.293Z,36.23
2018-07-30T09:50:50.222Z,36.28
2018-07-30T09:51:50.180Z,35.92
2018-07-30T09:52:50.077Z,35.73
2018-07-30T09:53:50.098Z,35.98
2018-07-30T09:54:49.931Z,35.77
2018-07-30T09:55:49.865Z,36.22
2018-07-30T09:56:49.820Z,36.27
2018-07-30T09:57:49.719Z,36.27
2018-07-30T09:58:49.649Z,36.25
2018-07-30T09:59:49.573Z,36.48
2018-07-30T10:00:49.596Z,36.71
2018-07-30T10:01:49.460Z,36.86
2018-07-30T10:02:49.359Z,36.82
2018-07-30T10:03:49.288Z,37.15
2018-07-30T10:04:49.215Z,37.35
2018-07-30T10:05:49.144Z,36.67
2018-07-30T10:06:49.100Z,36.67
2018-07-30T10:07:49.111Z,36.90
2018-07-30T10:08:48.930Z,36.50
2018-07-30T10:09:48.860Z,36.60
2018-07-30T10:10:48.787Z,36.68
2018-07-30T10:11:48.763Z,36.72
2018-07-30T10:12:48.646Z,36.97
2018-07-30T10:13:48.575Z,37.18
2018-07-30T10:14:48.593Z,36.67
2018-07-30T10:15:48.433Z,36.59
2018-07-30T10:16:48.392Z,36.67
2018-07-30T10:17:48.322Z,36.68
2018-07-30T10:18:48.212Z,37.16
2018-07-30T10:19:48.145Z,36.97
2018-07-30T10:20:48.071Z,36.44
2018-07-30T10:21:48.112Z,35.89
2018-07-30T10:22:47.934Z,35.34
2018-07-30T10:23:47.924Z,35.34
2018-07-30T10:24:47.789Z,35.44
2018-07-30T10:25:47.717Z,35.73
2018-07-30T10:26:47.675Z,35.71
2018-07-30T10:27:47.574Z,35.80
2018-07-30T10:28:47.500Z,35.98
2018-07-30T10:29:47.431Z,35.95
2018-07-30T10:30:47.389Z,35.77
2018-07-30T10:31:47.290Z,35.76
2018-07-30T10:32:47.246Z,36.43
2018-07-30T10:33:47.141Z,36.99
2018-07-30T10:34:47.086Z,37.11
2018-07-30T10:35:46.998Z,36.83
2018-07-30T10:36:46.959Z,36.71
2018-07-30T10:37:46.855Z,36.69
2018-07-30T10:38:46.784Z,37.21
2018-07-30T10:39:46.775Z,37.35
2018-07-30T10:40:46.641Z,37.16
2018-07-30T10:41:46.569Z,37.15
2018-07-30T10:42:46.528Z,37.34
2018-07-30T10:43:46.423Z,37.49
2018-07-30T10:44:46.352Z,37.56
2018-07-30T10:45:46.284Z,37.50
2018-07-30T10:46:46.216Z,37.47
2018-07-30T10:47:46.183Z,37.60
2018-07-30T10:48:46.067Z,37.85
2018-07-30T10:49:45.996Z,37.82
2018-07-30T10:50:45.921Z,37.68
2018-07-30T10:51:45.863Z,37.63
2018-07-30T10:52:45.811Z,37.23
2018-07-30T10:53:45.766Z,37.25
2018-07-30T10:54:45.638Z,37.02
2018-07-30T10:55:45.567Z,36.75
2018-07-30T10:56:45.497Z,37.11
2018-07-30T10:57:45.456Z,36.94
2018-07-30T10:58:45.355Z,36.74
2018-07-30T10:59:45.285Z,36.71
2018-07-30T11:00:45.212Z,36.65
2018-07-30T11:01:45.140Z,36.82
2018-07-30T11:02:45.098Z,36.69
2018-07-30T11:03:45.300Z,36.41
2018-07-30T11:04:44.926Z,36.62
2018-07-30T11:05:44.857Z,36.43
2018-07-30T11:06:44.784Z,36.53
2018-07-30T11:07:44.759Z,36.72
2018-07-30T11:08:44.647Z,36.91
2018-07-30T11:09:44.602Z,37.18
2018-07-30T11:10:44.499Z,37.27
2018-07-30T11:11:44.429Z,36.89
2018-07-30T11:12:44.391Z,36.67
2018-07-30T11:13:44.285Z,35.65
2018-07-30T11:14:44.240Z,35.87
2018-07-30T11:15:44.145Z,35.80
2018-07-30T11:16:44.077Z,35.99
2018-07-30T11:17:44.130Z,36.43
2018-07-30T11:18:43.930Z,36.27
2018-07-30T11:19:43.865Z,36.40
2018-07-30T11:20:43.813Z,36.86
2018-07-30T11:21:43.852Z,36.86
2018-07-30T11:22:43.675Z,36.82
2018-07-30T11:23:43.573Z,37.04
2018-07-30T11:24:43.499Z,36.68
2018-07-30T11:25:43.434Z,36.99
2018-07-30T11:26:43.358Z,37.27
2018-07-30T11:27:43.317Z,37.39
2018-07-30T11:28:43.214Z,37.82
2018-07-30T11:29:43.144Z,37.88
2018-07-30T11:30:43.071Z,37.78
2018-07-30T11:31:43.000Z,37.63
2018-07-30T11:32:42.964Z,37.54
2018-07-30T11:33:42.862Z,37.54
2018-07-30T11:34:42.791Z,37.60
2018-07-30T11:35:42.719Z,38.02
2018-07-30T11:36:42.646Z,38.40
2018-07-30T11:37:42.607Z,38.15
2018-07-30T11:38:42.505Z,37.58
2018-07-30T11:39:42.447Z,36.86
2018-07-30T11:40:42.365Z,36.67
2018-07-30T11:41:42.292Z,36.30
2018-07-30T11:42:42.252Z,36.49
2018-07-30T11:43:42.248Z,36.59
2018-07-30T11:44:42.086Z,37.12
2018-07-30T11:45:42.016Z,37.08
2018-07-30T11:46:41.940Z,37.30
2018-07-30T11:47:41.900Z,37.73
2018-07-30T11:48:41.819Z,37.54
2018-07-30T11:49:41.731Z,38.04
2018-07-30T11:50:41.659Z,36.77
2018-07-30T11:51:41.592Z,35.95
2018-07-30T11:52:41.543Z,35.59
2018-07-30T11:53:41.498Z,34.76
2018-07-30T11:54:41.380Z,34.31
2018-07-30T11:55:41.310Z,34.24
2018-07-30T11:56:41.235Z,34.24
2018-07-30T11:57:41.164Z,33.87
2018-07-30T11:58:41.125Z,33.72
2018-07-30T11:59:41.021Z,33.53
2018-07-30T12:00:40.948Z,33.37
2018-07-30T12:01:40.911Z,33.37
2018-07-30T12:02:40.804Z,33.09
2018-07-30T12:03:40.760Z,33.22
2018-07-30T12:04:40.657Z,33.28
2018-07-30T12:05:40.587Z,33.22
2018-07-30T12:06:40.511Z,33.07
2018-07-30T12:07:40.439Z,32.83
2018-07-30T12:08:40.436Z,32.77
2018-07-30T12:09:40.291Z,32.40
2018-07-30T12:10:40.215Z,32.32
2018-07-30T12:11:40.143Z,32.13
2018-07-30T12:12:40.069Z,32.10
2018-07-30T12:13:40.027Z,32.03
2018-07-30T12:14:39.917Z,32.06
2018-07-30T12:15:39.845Z,31.97
2018-07-30T12:16:39.770Z,31.95
2018-07-30T12:17:39.696Z,31.85
2018-07-30T12:18:39.663Z,31.76
2018-07-30T12:19:39.544Z,31.68
2018-07-30T12:20:39.471Z,31.54
2018-07-30T12:21:39.404Z,31.54
2018-07-30T12:22:39.315Z,31.32
2018-07-30T12:23:39.272Z,31.22
2018-07-30T12:24:39.168Z,31.20
2018-07-30T12:25:39.091Z,31.34
2018-07-30T12:26:39.013Z,31.28
2018-07-30T12:27:38.939Z,31.27
2018-07-30T12:28:38.894Z,31.25
2018-07-30T12:29:38.787Z,31.60
2018-07-30T12:30:38.745Z,32.16
2018-07-30T12:31:38.632Z,31.99
2018-07-30T12:32:38.555Z,32.73
2018-07-30T12:33:38.509Z,33.18
2018-07-30T12:34:38.497Z,33.28
2018-07-30T12:35:38.326Z,32.83
2018-07-30T12:36:38.250Z,32.62
2018-07-30T12:37:38.177Z,33.12
2018-07-30T12:38:38.128Z,33.63
2018-07-30T12:39:38.020Z,33.99
2018-07-30T12:40:37.955Z,34.46
2018-07-30T12:41:37.988Z,34.94
2018-07-30T12:42:37.789Z,35.42
2018-07-30T12:43:37.744Z,35.68
2018-07-30T12:44:37.642Z,35.43
2018-07-30T12:45:37.567Z,35.40
2018-07-30T12:46:37.491Z,35.34
2018-07-30T12:47:37.412Z,35.74
2018-07-30T12:48:37.458Z,35.74
2018-07-30T12:49:37.271Z,35.85
2018-07-30T12:50:37.267Z,35.87
2018-07-30T12:51:37.112Z,36.05